Terminal Aerodrome Forecast
Issued by NWS Paducah, KY

Home | Current Version | Previous Version | Text Only | Print | Product List | Glossary On
Versions: 1 2 3 4 5 6 7 8 9 10 11 12 13
023
FTUS43 KPAH 031124
TAFPAH
TAF
KPAH 031124Z 0312/0412 34003KT 6SM BR SCT015 BKN060
      TEMPO 0312/0315 BKN015
     FM031500 35006KT P6SM BKN050
     FM040200 VRB02KT P6SM SCT060=

USA.gov is the U.S. government's official web portal to all federal, state and local government web resources and services.